Time;durP1;ratioP1;P1;durP2;ratioP2;P2;SDS_P1;SDS_P2;PMS_P1;PMS_P2;Temp;Humidity;BMP_temperature;BMP_pressure;BME280_temperature;BME280_humidity;BME280_pressure;Samples;Min_cycle;Max_cycle;Signal;HPM_P1;HPM_P2
2023/10/26 00:02:00;;;;;;;;;;;;;;;9.01;100.00;99621.50;5012681;28;20291;-74
2023/10/26 00:04:25;;;;;;;;;;;;;;;8.94;100.00;99621.22;4994501;28;20360;-73
2023/10/26 00:06:50;;;;;;;;;;;;;;;8.86;100.00;99623.78;5013755;28;20379;-72
2023/10/26 00:09:15;;;;;;;;;;;;;;;8.86;100.00;99637.16;5012903;28;20576;-73
2023/10/26 00:11:40;;;;;;;;;;;;;;;8.87;100.00;99641.53;5008119;28;20015;-73
2023/10/26 00:14:06;;;;;;;;;;;;;;;8.89;100.00;99650.22;5010051;28;19975;-73
2023/10/26 00:16:31;;;;;;;;;;;;;;;8.90;100.00;99645.75;5012645;28;19929;-73
2023/10/26 00:18:56;;;;;;;;;;;;;;;8.84;100.00;99637.28;5012244;28;19925;-73
2023/10/26 00:21:21;;;;;;;;;;;;;;;8.82;100.00;99644.59;5012340;28;20056;-73
2023/10/26 00:23:47;;;;;;;;;;;;;;;8.82;100.00;99654.47;5006836;28;20345;-73
2023/10/26 00:26:12;;;;;;;;;;;;;;;8.87;100.00;99651.38;5010128;28;20023;-73
2023/10/26 00:28:37;;;;;;;;;;;;;;;8.90;100.00;99651.09;5010401;28;19921;-73
2023/10/26 00:31:03;;;;;;;;;;;;;;;8.91;100.00;99658.97;5009135;28;20358;-73
2023/10/26 00:33:28;;;;;;;;;;;;;;;8.84;100.00;99661.38;5026032;28;20314;-73
2023/10/26 00:35:53;;;;;;;;;;;;;;;8.84;100.00;99657.84;5024949;28;20037;-73
2023/10/26 00:38:19;;;;;;;;;;;;;;;8.89;100.00;99663.63;5010483;28;20271;-73
2023/10/26 00:40:44;;;;;;;;;;;;;;;8.88;100.00;99666.44;5009012;28;20558;-73
2023/10/26 00:43:18;;;;;;;;;;;;;;;8.91;100.00;99671.53;5005815;28;20503;-73
2023/10/26 00:45:44;;;;;;;;;;;;;;;8.85;100.00;99670.25;5008643;28;20012;-73
2023/10/26 00:48:09;;;;;;;;;;;;;;;8.77;100.00;99670.09;5006035;28;19947;-73
2023/10/26 00:50:34;;;;;;;;;;;;;;;8.77;100.00;99675.44;5009364;28;20274;-73
2023/10/26 00:52:59;;;;;;;;;;;;;;;8.75;100.00;99682.75;5010856;28;20512;-73
2023/10/26 00:55:24;;;;;;;;;;;;;;;8.74;100.00;99681.88;4993384;28;20411;-73
2023/10/26 00:57:50;;;;;;;;;;;;;;;8.70;100.00;99686.69;5011517;28;20384;-73
2023/10/26 01:00:15;;;;;;;;;;;;;;;8.61;100.00;99683.97;5009507;28;19963;-73
2023/10/26 01:02:40;;;;;;;;;;;;;;;8.56;100.00;99679.03;5009514;28;19948;-73
2023/10/26 01:05:06;;;;;;;;;;;;;;;8.49;100.00;99681.38;5009802;28;19962;-72
2023/10/26 01:07:31;;;;;;;;;;;;;;;8.35;100.00;99674.53;5011079;28;20439;-72
2023/10/26 01:09:56;;;;;;;;;;;;;;;8.29;100.00;99675.09;5008450;28;20269;-72
2023/10/26 01:12:22;;;;;;;;;;;;;;;8.20;100.00;99671.41;5012753;28;20323;-73
2023/10/26 01:14:47;;;;;;;;;;;;;;;8.14;100.00;99684.41;5012030;28;19921;-73
2023/10/26 01:17:12;;;;;;;;;;;;;;;8.08;100.00;99683.97;5026749;28;19949;-72
2023/10/26 01:19:38;;;;;;;;;;;;;;;8.08;100.00;99683.13;5012973;28;20027;-72
2023/10/26 01:22:03;;;;;;;;;;;;;;;8.10;100.00;99691.88;5021772;28;19969;-72
2023/10/26 01:24:28;;;;;;;;;;;;;;;8.09;100.00;99699.03;4995150;28;20035;-73
2023/10/26 01:26:54;;;;;;;;;;;;;;;8.11;100.00;99714.97;5013061;28;20257;-73
2023/10/26 01:29:19;;;;;;;;;;;;;;;8.13;100.00;99717.47;5012980;28;19927;-75
2023/10/26 01:31:44;;;;;;;;;;;;;;;7.99;100.00;99698.13;5012268;28;19927;-73
2023/10/26 01:34:10;;;;;;;;;;;;;;;8.16;100.00;99726.09;4997010;28;19923;-73
2023/10/26 01:36:35;;;;;;;;;;;;;;;8.18;100.00;99725.97;4996401;28;20376;-73
2023/10/26 01:39:00;;;;;;;;;;;;;;;8.07;100.00;99705.50;5012724;28;19917;-73
2023/10/26 01:41:29;;;;;;;;;;;;;;;8.18;100.00;99724.16;5014244;28;19917;-73
2023/10/26 01:43:54;;;;;;;;;;;;;;;8.18;100.00;99715.28;5012890;28;20315;-73
2023/10/26 01:46:20;;;;;;;;;;;;;;;8.11;100.00;99715.78;5010799;28;20383;-72
2023/10/26 01:48:45;;;;;;;;;;;;;;;8.11;100.00;99714.97;5012258;28;19917;-73
2023/10/26 01:51:10;;;;;;;;;;;;;;;8.13;100.00;99723.69;5012093;28;19921;-73
2023/10/26 01:53:35;;;;;;;;;;;;;;;8.14;100.00;99714.69;5019997;28;19968;-73
2023/10/26 01:56:01;;;;;;;;;;;;;;;8.19;100.00;99707.13;5012418;28;19928;-73
2023/10/26 01:58:26;;;;;;;;;;;;;;;8.22;100.00;99714.88;5009589;28;19932;-73
2023/10/26 02:00:51;;;;;;;;;;;;;;;8.23;100.00;99705.03;5012240;28;20246;-73
2023/10/26 02:03:18;;;;;;;;;;;;;;;8.18;100.00;99697.41;5008229;28;19929;-73
2023/10/26 02:05:43;;;;;;;;;;;;;;;8.14;100.00;99692.44;5014165;28;19917;-73
2023/10/26 02:08:08;;;;;;;;;;;;;;;8.02;100.00;99699.69;5011328;28;19943;-72
2023/10/26 02:10:34;;;;;;;;;;;;;;;7.90;100.00;99698.91;5014723;28;19960;-73
2023/10/26 02:13:00;;;;;;;;;;;;;;;7.85;100.00;99695.78;5010467;28;19931;-74
2023/10/26 02:15:25;;;;;;;;;;;;;;;7.79;100.00;99700.69;4999088;28;20295;-73
2023/10/26 02:17:50;;;;;;;;;;;;;;;7.74;100.00;99704.69;4998965;28;20459;-73
2023/10/26 02:20:15;;;;;;;;;;;;;;;7.70;100.00;99703.25;5013557;28;20074;-73
2023/10/26 02:22:41;;;;;;;;;;;;;;;7.67;100.00;99700.88;5015424;28;19917;-73
2023/10/26 02:25:06;;;;;;;;;;;;;;;7.63;100.00;99697.59;5015063;28;19920;-73
2023/10/26 02:27:31;;;;;;;;;;;;;;;7.58;100.00;99699.78;4997061;28;20457;-73
2023/10/26 02:29:57;;;;;;;;;;;;;;;7.55;100.00;99697.41;5014878;28;20291;-73
2023/10/26 02:32:22;;;;;;;;;;;;;;;7.56;100.00;99697.25;5016292;28;19959;-73
2023/10/26 02:34:47;;;;;;;;;;;;;;;7.59;100.00;99702.34;5013622;28;19928;-73
2023/10/26 02:37:12;;;;;;;;;;;;;;;7.62;100.00;99707.44;5014919;28;19921;-73
2023/10/26 02:39:38;;;;;;;;;;;;;;;7.67;100.00;99707.06;5013539;28;19979;-73
2023/10/26 02:42:03;;;;;;;;;;;;;;;7.68;100.00;99705.25;5015924;28;20024;-73
2023/10/26 02:44:28;;;;;;;;;;;;;;;7.58;100.00;99683.78;5016107;28;19999;-73
2023/10/26 02:46:53;;;;;;;;;;;;;;;7.69;100.00;99707.78;5013225;28;19917;-73
2023/10/26 02:49:19;;;;;;;;;;;;;;;7.72;100.00;99715.53;5013420;28;19936;-74
2023/10/26 02:51:44;;;;;;;;;;;;;;;7.75;100.00;99712.59;4996702;28;19921;-73
2023/10/26 02:54:09;;;;;;;;;;;;;;;7.78;100.00;99703.47;5013137;28;19921;-73
2023/10/26 02:56:34;;;;;;;;;;;;;;;7.78;100.00;99700.81;5013952;28;19928;-73
2023/10/26 02:58:59;;;;;;;;;;;;;;;7.79;100.00;99705.16;5014282;28;20229;-73
2023/10/26 03:01:25;;;;;;;;;;;;;;;7.81;100.00;99698.69;5017985;28;20014;-73
2023/10/26 03:03:51;;;;;;;;;;;;;;;7.82;100.00;99704.91;5013629;28;20250;-73
2023/10/26 03:06:16;;;;;;;;;;;;;;;7.85;100.00;99704.66;5015683;28;19931;-74
2023/10/26 03:08:41;;;;;;;;;;;;;;;7.87;100.00;99696.50;5014687;28;19924;-73
2023/10/26 03:11:06;;;;;;;;;;;;;;;7.87;100.00;99692.00;5017121;28;19921;-73
2023/10/26 03:13:32;;;;;;;;;;;;;;;7.85;100.00;99693.09;5013697;28;20192;-73
2023/10/26 03:15:57;;;;;;;;;;;;;;;7.88;100.00;99690.19;5011165;28;19924;-73
2023/10/26 03:18:22;;;;;;;;;;;;;;;7.83;100.00;99692.38;5010523;28;19928;-73
2023/10/26 03:20:47;;;;;;;;;;;;;;;7.84;100.00;99691.41;5025088;28;20094;-73
2023/10/26 03:23:12;;;;;;;;;;;;;;;7.81;100.00;99689.84;5014685;28;19918;-73
2023/10/26 03:25:38;;;;;;;;;;;;;;;7.78;100.00;99687.44;5011872;28;19921;-73
2023/10/26 03:28:03;;;;;;;;;;;;;;;7.77;100.00;99688.41;5014185;28;20013;-73
2023/10/26 03:30:28;;;;;;;;;;;;;;;7.82;100.00;99688.88;5014845;28;19921;-73
2023/10/26 03:32:53;;;;;;;;;;;;;;;7.90;100.00;99698.91;5015330;28;19926;-73
2023/10/26 03:35:19;;;;;;;;;;;;;;;7.92;100.00;99694.28;5012951;28;19921;-73
2023/10/26 03:37:45;;;;;;;;;;;;;;;7.94;100.00;99685.19;5014921;28;19917;-73
2023/10/26 03:40:10;;;;;;;;;;;;;;;7.98;100.00;99688.44;5016172;28;20185;-73
2023/10/26 03:42:35;;;;;;;;;;;;;;;7.97;100.00;99681.38;5014715;28;19921;-73
2023/10/26 03:45:01;;;;;;;;;;;;;;;7.97;100.00;99678.72;5015268;28;19944;-73
2023/10/26 03:47:26;;;;;;;;;;;;;;;7.99;100.00;99689.25;5019463;28;20014;-73
2023/10/26 03:49:52;;;;;;;;;;;;;;;7.96;100.00;99693.06;5024358;28;19928;-73
2023/10/26 03:52:20;;;;;;;;;;;;;;;7.99;100.00;99689.25;5020076;28;19987;-73
2023/10/26 03:54:46;;;;;;;;;;;;;;;8.02;100.00;99691.66;5018229;28;20024;-73
2023/10/26 03:57:11;;;;;;;;;;;;;;;7.96;100.00;99685.88;5022365;28;19921;-73
2023/10/26 03:59:37;;;;;;;;;;;;;;;7.92;100.00;99687.13;5019634;28;20315;-73
2023/10/26 04:02:02;;;;;;;;;;;;;;;7.88;100.00;99690.19;5022275;28;19996;-73
2023/10/26 04:04:28;;;;;;;;;;;;;;;7.86;100.00;99686.78;5020154;28;19921;-73
2023/10/26 04:06:53;;;;;;;;;;;;;;;7.89;100.00;99687.38;5019700;28;20024;-73
2023/10/26 04:09:18;;;;;;;;;;;;;;;7.89;100.00;99684.72;5017558;28;19917;-73
2023/10/26 04:11:45;;;;;;;;;;;;;;;7.85;100.00;99677.94;5034321;28;20006;-73
2023/10/26 04:14:10;;;;;;;;;;;;;;;7.80;100.00;99675.66;5020724;28;20146;-74
2023/10/26 04:16:35;;;;;;;;;;;;;;;7.80;100.00;99681.00;5014494;28;19939;-73
2023/10/26 04:19:00;;;;;;;;;;;;;;;7.83;100.00;99677.22;5013205;28;20379;-73
2023/10/26 04:21:25;;;;;;;;;;;;;;;7.87;100.00;99678.66;5009278;28;20440;-73
2023/10/26 04:23:51;;;;;;;;;;;;;;;7.83;100.00;99674.53;5014089;28;20553;-73
2023/10/26 04:26:16;;;;;;;;;;;;;;;7.79;100.00;99671.28;4997498;28;20618;-73
2023/10/26 04:28:41;;;;;;;;;;;;;;;7.78;100.00;99669.59;5014548;28;20450;-73
2023/10/26 04:31:06;;;;;;;;;;;;;;;7.77;100.00;99680.41;5013735;28;19971;-73
2023/10/26 04:33:32;;;;;;;;;;;;;;;7.76;100.00;99679.56;5014224;28;20385;-73
2023/10/26 04:35:59;;;;;;;;;;;;;;;7.73;100.00;99682.50;5015626;28;19921;-73
2023/10/26 04:38:24;;;;;;;;;;;;;;;7.64;100.00;99686.78;5015723;28;19921;-73
2023/10/26 04:40:49;;;;;;;;;;;;;;;7.60;100.00;99679.16;5014175;28;19925;-73
2023/10/26 04:43:15;;;;;;;;;;;;;;;7.56;100.00;99681.25;5010844;28;19924;-73
2023/10/26 04:45:40;;;;;;;;;;;;;;;7.49;100.00;99694.25;5012561;28;20360;-73
2023/10/26 04:48:05;;;;;;;;;;;;;;;7.48;100.00;99691.72;5013751;28;19925;-73
2023/10/26 04:50:30;;;;;;;;;;;;;;;7.58;100.00;99700.66;4998473;28;19916;-73
2023/10/26 04:52:56;;;;;;;;;;;;;;;7.63;100.00;99693.13;5014704;28;19925;-73
2023/10/26 04:55:21;;;;;;;;;;;;;;;7.74;100.00;99684.19;4997835;28;19979;-73
2023/10/26 04:57:46;;;;;;;;;;;;;;;7.79;100.00;99684.66;5014419;28;19921;-73
2023/10/26 05:00:12;;;;;;;;;;;;;;;7.76;100.00;99684.91;5018954;28;19920;-73
2023/10/26 05:02:37;;;;;;;;;;;;;;;7.72;100.00;99683.47;5014813;28;19917;-73
2023/10/26 05:05:03;;;;;;;;;;;;;;;7.77;100.00;99675.91;5019963;28;19957;-73
2023/10/26 05:07:29;;;;;;;;;;;;;;;7.86;100.00;99673.41;5016665;28;19964;-73
2023/10/26 05:09:55;;;;;;;;;;;;;;;7.89;100.00;99674.03;5015405;28;19964;-73
2023/10/26 05:12:20;;;;;;;;;;;;;;;7.88;100.00;99680.34;5026727;28;19975;-73
2023/10/26 05:14:45;;;;;;;;;;;;;;;7.91;100.00;99680.09;5004612;28;19964;-73
2023/10/26 05:17:11;;;;;;;;;;;;;;;7.93;100.00;99677.28;5013744;28;19921;-73
2023/10/26 05:19:36;;;;;;;;;;;;;;;7.98;100.00;99674.19;5036746;28;19928;-73
2023/10/26 05:22:01;;;;;;;;;;;;;;;8.00;100.00;99675.78;5019813;28;19945;-73
2023/10/26 05:24:26;;;;;;;;;;;;;;;7.98;100.00;99668.84;5000177;28;19921;-73
2023/10/26 05:26:51;;;;;;;;;;;;;;;7.93;100.00;99671.94;5017031;28;20588;-73
2023/10/26 05:29:17;;;;;;;;;;;;;;;7.93;100.00;99666.59;5020949;28;20446;-73
2023/10/26 05:31:42;;;;;;;;;;;;;;;7.94;100.00;99678.97;5002613;28;19925;-73
2023/10/26 05:34:07;;;;;;;;;;;;;;;7.92;100.00;99678.25;5002790;28;19976;-73
2023/10/26 05:36:32;;;;;;;;;;;;;;;7.98;100.00;99682.22;5013551;28;20318;-73
2023/10/26 05:38:58;;;;;;;;;;;;;;;8.02;100.00;99673.81;5014428;28;20327;-73
2023/10/26 05:41:23;;;;;;;;;;;;;;;8.06;100.00;99672.59;5009051;28;19962;-74
2023/10/26 05:43:48;;;;;;;;;;;;;;;8.07;100.00;99671.59;5009241;28;20050;-73
2023/10/26 05:46:13;;;;;;;;;;;;;;;8.08;100.00;99667.09;5007455;28;19944;-73
2023/10/26 05:48:38;;;;;;;;;;;;;;;8.04;100.00;99669.19;5008561;28;20379;-73
2023/10/26 05:51:04;;;;;;;;;;;;;;;8.07;100.00;99668.06;5010375;28;19971;-73
2023/10/26 05:53:29;;;;;;;;;;;;;;;8.08;100.00;99672.44;5015853;28;19931;-73
2023/10/26 05:55:55;;;;;;;;;;;;;;;8.09;100.00;99674.13;5013368;28;19920;-73
2023/10/26 05:58:20;;;;;;;;;;;;;;;8.05;100.00;99676.25;5017843;28;19932;-73
2023/10/26 06:00:46;;;;;;;;;;;;;;;8.03;100.00;99686.22;5014904;28;19931;-73
2023/10/26 06:03:11;;;;;;;;;;;;;;;7.92;100.00;99681.78;5015551;28;19928;-73
2023/10/26 06:05:36;;;;;;;;;;;;;;;7.98;100.00;99682.22;5013663;28;19932;-73
2023/10/26 06:08:01;;;;;;;;;;;;;;;7.88;100.00;99684.81;5009128;28;20146;-72
2023/10/26 06:10:26;;;;;;;;;;;;;;;7.82;100.00;99683.53;5012654;28;20758;-73
2023/10/26 06:12:52;;;;;;;;;;;;;;;7.62;100.00;99686.06;5013926;28;20482;-72
2023/10/26 06:15:17;;;;;;;;;;;;;;;7.63;100.00;99689.56;5015777;28;19962;-72
2023/10/26 06:17:42;;;;;;;;;;;;;;;7.55;100.00;99686.72;5012369;28;19928;-72
2023/10/26 06:20:07;;;;;;;;;;;;;;;7.47;100.00;99687.34;5015304;28;19925;-73
2023/10/26 06:22:33;;;;;;;;;;;;;;;7.42;100.00;99684.19;5010921;28;20245;-73
2023/10/26 06:24:58;;;;;;;;;;;;;;;7.39;100.00;99689.81;5011990;28;19925;-72
2023/10/26 06:27:23;;;;;;;;;;;;;;;7.33;100.00;99692.03;5027917;28;19928;-72
2023/10/26 06:29:50;;;;;;;;;;;;;;;7.24;100.00;99692.75;5013822;28;19988;-72
2023/10/26 06:32:16;;;;;;;;;;;;;;;7.09;100.00;99689.53;5026360;28;19957;-72
2023/10/26 06:34:41;;;;;;;;;;;;;;;7.08;100.00;99679.81;5014958;28;20005;-72
2023/10/26 06:37:06;;;;;;;;;;;;;;;7.08;100.00;99687.84;5017824;28;19921;-72
2023/10/26 06:39:31;;;;;;;;;;;;;;;7.06;100.00;99684.44;5015416;28;19921;-72
2023/10/26 06:41:56;;;;;;;;;;;;;;;7.11;100.00;99676.91;5019511;28;19928;-72
2023/10/26 06:44:23;;;;;;;;;;;;;;;7.03;100.00;99677.53;5021783;28;19948;-72
2023/10/26 06:46:48;;;;;;;;;;;;;;;7.04;100.00;99673.91;5011486;28;19921;-72
2023/10/26 06:49:13;;;;;;;;;;;;;;;7.02;100.00;99678.50;5016906;28;19920;-72
2023/10/26 06:51:38;;;;;;;;;;;;;;;7.13;100.00;99682.13;5028838;28;20043;-72
2023/10/26 06:54:03;;;;;;;;;;;;;;;7.22;100.00;99688.53;5017385;28;19924;-72
2023/10/26 06:56:29;;;;;;;;;;;;;;;7.16;100.00;99681.84;5015357;28;19932;-72
2023/10/26 06:58:54;;;;;;;;;;;;;;;7.17;100.00;99684.41;5016794;28;19967;-73
2023/10/26 07:01:19;;;;;;;;;;;;;;;7.22;100.00;99677.88;5014094;28;20525;-72
2023/10/26 07:03:45;;;;;;;;;;;;;;;7.33;100.00;99681.34;5028862;28;19931;-73
2023/10/26 07:06:10;;;;;;;;;;;;;;;7.40;100.00;99676.31;5011991;28;19928;-72
2023/10/26 07:08:36;;;;;;;;;;;;;;;7.49;100.00;99680.91;5007666;28;19925;-72
2023/10/26 07:11:05;;;;;;;;;;;;;;;7.49;100.00;99670.22;5014721;28;20228;-72
2023/10/26 07:13:30;;;;;;;;;;;;;;;7.60;100.00;99677.34;5013379;28;20418;-73
2023/10/26 07:16:01;;;;;;;;;;;;;;;7.63;100.00;99679.75;5016032;28;19921;-73
2023/10/26 07:18:27;;;;;;;;;;;;;;;7.69;100.00;99674.84;5015510;28;19925;-73
2023/10/26 07:20:52;;;;;;;;;;;;;;;7.63;100.00;99653.03;5009813;28;20348;-73
2023/10/26 07:23:18;;;;;;;;;;;;;;;7.87;100.00;99669.78;5014091;28;19928;-73
2023/10/26 07:25:43;;;;;;;;;;;;;;;7.80;100.00;99664.97;5029577;28;19948;-72
2023/10/26 07:28:08;;;;;;;;;;;;;;;7.70;100.00;99660.50;5018083;28;19944;-72
2023/10/26 07:30:42;;;;;;;;;;;;;;;7.63;100.00;99662.88;5011748;28;20307;-72
2023/10/26 07:33:08;;;;;;;;;;;;;;;7.61;100.00;99663.00;5013987;28;19948;-72
2023/10/26 07:35:42;;;;;;;;;;;;;;;7.68;100.00;99657.16;5014168;28;20449;-73
2023/10/26 07:38:10;;;;;;;;;;;;;;;7.77;100.00;99654.53;5013642;28;20527;-73
2023/10/26 07:40:36;;;;;;;;;;;;;;;7.80;100.00;99654.28;5016525;28;19938;-72
2023/10/26 07:43:01;;;;;;;;;;;;;;;7.87;100.00;99661.75;5021597;28;19921;-72
2023/10/26 07:45:26;;;;;;;;;;;;;;;7.90;100.00;99656.16;5017581;28;19926;-73
2023/10/26 07:47:51;;;;;;;;;;;;;;;7.99;100.00;99657.19;5008604;28;19968;-73
2023/10/26 07:50:19;;;;;;;;;;;;;;;8.01;100.00;99655.22;5010777;28;20004;-72
2023/10/26 07:52:45;;;;;;;;;;;;;;;7.97;100.00;99657.31;5011367;28;20257;-72
2023/10/26 07:55:10;;;;;;;;;;;;;;;7.91;100.00;99652.50;5012846;28;19927;-72
2023/10/26 07:57:35;;;;;;;;;;;;;;;8.09;100.00;99661.59;5014735;28;19932;-73
2023/10/26 08:00:01;;;;;;;;;;;;;;;8.13;100.00;99669.34;5013340;28;19921;-72
2023/10/26 08:02:26;;;;;;;;;;;;;;;8.07;100.00;99662.72;5012972;28;19921;-72
2023/10/26 08:04:51;;;;;;;;;;;;;;;8.13;100.00;99669.34;5019111;28;19921;-72
2023/10/26 08:07:16;;;;;;;;;;;;;;;8.01;100.00;99676.63;5016974;28;19929;-73
2023/10/26 08:09:41;;;;;;;;;;;;;;;7.85;100.00;99672.59;5016319;28;20011;-73
2023/10/26 08:12:07;;;;;;;;;;;;;;;7.79;100.00;99675.78;5014449;28;19932;-72
2023/10/26 08:14:32;;;;;;;;;;;;;;;7.82;100.00;99683.53;5024076;28;19927;-72
2023/10/26 08:16:59;;;;;;;;;;;;;;;7.76;100.00;99684.03;5014735;28;19921;-72
2023/10/26 08:19:24;;;;;;;;;;;;;;;7.84;100.00;99689.59;5022837;28;19928;-72
2023/10/26 08:21:49;;;;;;;;;;;;;;;8.00;100.00;99690.94;5000031;28;19929;-72
2023/10/26 08:24:15;;;;;;;;;;;;;;;8.12;100.00;99695.25;5014479;28;19924;-72
2023/10/26 08:26:40;;;;;;;;;;;;;;;8.17;100.00;99698.41;5013493;28;20067;-72
2023/10/26 08:29:06;;;;;;;;;;;;;;;8.20;100.00;99700.81;5012730;28;19947;-72
2023/10/26 08:31:35;;;;;;;;;;;;;;;8.23;100.00;99702.34;5013244;28;20224;-72
2023/10/26 08:34:00;;;;;;;;;;;;;;;8.34;100.00;99699.59;5011330;28;20435;-72
2023/10/26 08:36:25;;;;;;;;;;;;;;;8.47;100.00;99694.03;5012281;28;20040;-73
2023/10/26 08:38:51;;;;;;;;;;;;;;;8.53;100.00;99706.88;5012045;28;19929;-72
2023/10/26 08:41:16;;;;;;;;;;;;;;;8.43;100.00;99708.66;5014033;28;19925;-72
2023/10/26 08:43:41;;;;;;;;;;;;;;;8.54;100.00;99711.25;5024925;28;19920;-73
2023/10/26 08:46:06;;;;;;;;;;;;;;;8.69;100.00;99710.91;4998553;28;19961;-73
2023/10/26 08:48:32;;;;;;;;;;;;;;;8.76;100.00;99709.38;5002534;28;19921;-73
2023/10/26 08:50:57;;;;;;;;;;;;;;;8.76;100.00;99708.53;5020925;28;20371;-72
2023/10/26 08:53:22;;;;;;;;;;;;;;;8.85;100.00;99716.59;5018124;28;20370;-73
2023/10/26 08:55:47;;;;;;;;;;;;;;;8.84;100.00;99719.41;5007714;28;19948;-72
2023/10/26 08:58:13;;;;;;;;;;;;;;;8.84;100.00;99714.06;5004427;28;19925;-72
2023/10/26 09:00:40;;;;;;;;;;;;;;;8.95;100.00;99716.63;5007592;28;20295;-73
2023/10/26 09:03:06;;;;;;;;;;;;;;;8.94;100.00;99714.94;5009579;28;20351;-72
2023/10/26 09:05:31;;;;;;;;;;;;;;;8.97;100.00;99724.53;5015327;28;19921;-72
2023/10/26 09:07:57;;;;;;;;;;;;;;;9.03;100.00;99710.56;5010463;28;19971;-72
2023/10/26 09:10:31;;;;;;;;;;;;;;;9.10;100.00;99710.88;5007028;28;19921;-73
2023/10/26 09:12:58;;;;;;;;;;;;;;;9.00;100.00;99710.88;5011869;28;20211;-72
2023/10/26 09:15:23;;;;;;;;;;;;;;;8.99;100.00;99709.19;4991629;28;19921;-72
2023/10/26 09:17:48;;;;;;;;;;;;;;;9.10;100.00;99708.22;5024299;28;19921;-72
2023/10/26 09:20:17;;;;;;;;;;;;;;;9.37;100.00;99701.34;5018197;28;19976;-72
2023/10/26 09:22:43;;;;;;;;;;;;;;;9.59;100.00;99700.19;5030862;28;20640;-72
2023/10/26 09:25:08;;;;;;;;;;;;;;;9.70;100.00;99704.56;5019663;28;20402;-72
2023/10/26 09:27:34;;;;;;;;;;;;;;;9.79;100.00;99708.25;5017129;28;19967;-73
2023/10/26 09:29:59;;;;;;;;;;;;;;;9.81;100.00;99703.56;5023867;28;19924;-73
2023/10/26 09:32:34;;;;;;;;;;;;;;;9.80;100.00;99700.06;5018922;28;20324;-73
2023/10/26 09:35:00;;;;;;;;;;;;;;;9.86;100.00;99680.72;5023719;28;20317;-73
2023/10/26 09:37:25;;;;;;;;;;;;;;;9.92;100.00;99673.13;5021871;28;19956;-73
2023/10/26 09:39:50;;;;;;;;;;;;;;;10.01;100.00;99680.28;5030462;28;20378;-73
2023/10/26 09:42:15;;;;;;;;;;;;;;;10.05;100.00;99671.81;5029282;28;20462;-72
2023/10/26 09:44:40;;;;;;;;;;;;;;;10.10;100.00;99666.00;5022529;28;19921;-72
2023/10/26 09:47:08;;;;;;;;;;;;;;;10.15;100.00;99673.59;5015264;28;19964;-72
2023/10/26 09:49:34;;;;;;;;;;;;;;;10.18;100.00;99678.69;5023778;28;19921;-73
2023/10/26 09:51:59;;;;;;;;;;;;;;;10.27;100.00;99668.91;5026736;28;20509;-73
2023/10/26 09:54:27;;;;;;;;;;;;;;;10.22;100.00;99664.00;5019352;28;19927;-73
2023/10/26 09:56:59;;;;;;;;;;;;;;;10.25;100.00;99666.38;5031590;28;20427;-72
2023/10/26 09:59:24;;;;;;;;;;;;;;;10.17;100.00;99660.91;5029783;28;20188;-72
2023/10/26 10:01:50;;;;;;;;;;;;;;;10.23;100.00;99659.47;5014230;28;19968;-72
2023/10/26 10:04:18;;;;;;;;;;;;;;;10.18;100.00;99650.03;5017158;28;19921;-72
2023/10/26 10:06:50;;;;;;;;;;;;;;;10.39;100.00;99656.19;5018320;28;19920;-73
2023/10/26 10:09:22;;;;;;;;;;;;;;;10.58;100.00;99655.25;5021521;28;19963;-72
2023/10/26 10:12:12;;;;;;;;;;;;;;;10.59;100.00;99656.94;5010034;28;20466;-73
2023/10/26 10:14:46;;;;;;;;;;;;;;;10.66;100.00;99652.69;5023828;28;19924;-73
2023/10/26 10:17:12;;;;;;;;;;;;;;;10.52;100.00;99642.44;5018568;28;20409;-73
2023/10/26 10:19:40;;;;;;;;;;;;;;;10.59;100.00;99641.72;5016620;28;19963;-73
2023/10/26 10:22:15;;;;;;;;;;;;;;;10.66;100.00;99641.94;5011783;28;20360;-73
2023/10/26 10:24:42;;;;;;;;;;;;;;;10.45;100.00;99648.41;5016686;28;19925;-72
2023/10/26 10:27:10;;;;;;;;;;;;;;;10.44;100.00;99645.84;5013895;28;19921;-72
2023/10/26 10:29:35;;;;;;;;;;;;;;;10.18;100.00;99644.69;5022373;28;19928;-73
2023/10/26 10:32:01;;;;;;;;;;;;;;;10.07;100.00;99642.16;5016485;28;19921;-72
2023/10/26 10:34:27;;;;;;;;;;;;;;;9.98;100.00;99643.88;5015191;28;19931;-72
2023/10/26 10:37:08;;;;;;;;;;;;;;;9.98;100.00;99638.50;5013391;28;19952;-72
2023/10/26 10:39:33;;;;;;;;;;;;;;;9.83;100.00;99631.91;5012684;28;19921;-73
2023/10/26 10:41:59;;;;;;;;;;;;;;;9.72;100.00;99632.91;5013048;28;20272;-73
2023/10/26 10:44:24;;;;;;;;;;;;;;;9.65;100.00;99615.72;5016917;28;20391;-72
2023/10/26 10:46:49;;;;;;;;;;;;;;;9.68;100.00;99629.69;5013881;28;19921;-71
2023/10/26 10:49:16;;;;;;;;;;;;;;;9.64;100.00;99630.13;5012092;28;19983;-72
2023/10/26 10:51:42;;;;;;;;;;;;;;;9.64;100.00;99627.44;5015812;28;19962;-73
2023/10/26 10:54:12;;;;;;;;;;;;;;;9.56;100.00;99625.47;5005917;28;19929;-72
2023/10/26 10:56:38;;;;;;;;;;;;;;;9.59;100.00;99619.81;5014851;28;19928;-72
2023/10/26 10:59:19;;;;;;;;;;;;;;;9.66;100.00;99620.94;5015469;28;19917;-72
2023/10/26 11:01:44;;;;;;;;;;;;;;;9.69;100.00;99606.41;5011784;28;19925;-71
2023/10/26 11:04:13;;;;;;;;;;;;;;;9.92;100.00;99600.72;5013769;28;19925;-72
2023/10/26 11:06:47;;;;;;;;;;;;;;;10.19;100.00;99606.13;5016410;28;19929;-72
2023/10/26 11:09:39;;;;;;;;;;;;;;;10.65;100.00;99600.81;5013519;28;19921;-72
2023/10/26 11:12:08;;;;;;;;;;;;;;;11.35;100.00;99583.19;5011237;28;19925;-72
2023/10/26 11:14:33;;;;;;;;;;;;;;;11.73;100.00;99571.38;5005939;28;19925;-73
2023/10/26 11:16:59;;;;;;;;;;;;;;;11.62;100.00;99561.75;5014234;28;20287;-72
2023/10/26 11:19:24;;;;;;;;;;;;;;;11.43;100.00;99558.22;5015831;28;20275;-72
2023/10/26 11:21:55;;;;;;;;;;;;;;;11.25;100.00;99559.13;5013345;28;20623;-72
2023/10/26 11:24:28;;;;;;;;;;;;;;;11.00;100.00;99563.41;4996639;28;20600;-71
2023/10/26 11:27:06;;;;;;;;;;;;;;;10.83;100.00;99575.88;5012277;28;19920;-72
2023/10/26 11:29:32;;;;;;;;;;;;;;;10.83;100.00;99570.50;5009635;28;19920;-72
2023/10/26 11:31:57;;;;;;;;;;;;;;;11.17;100.00;99588.59;4995684;28;20259;-72
2023/10/26 11:34:25;;;;;;;;;;;;;;;11.47;100.00;99572.22;4998417;28;20319;-72
2023/10/26 11:36:50;;;;;;;;;;;;;;;11.45;100.00;99576.91;5012990;28;20372;-72
2023/10/26 11:39:15;;;;;;;;;;;;;;;11.52;100.00;99570.75;5009227;28;19926;-72
2023/10/26 11:41:40;;;;;;;;;;;;;;;11.99;100.00;99568.69;5011714;28;19921;-72
2023/10/26 11:44:22;;;;;;;;;;;;;;;12.40;100.00;99560.81;5011574;28;19921;-72
2023/10/26 11:46:47;;;;;;;;;;;;;;;12.56;100.00;99564.56;5017409;28;19927;-71
2023/10/26 11:49:12;;;;;;;;;;;;;;;12.54;100.00;99561.19;4996760;28;19917;-72
2023/10/26 11:51:38;;;;;;;;;;;;;;;12.64;100.00;99559.22;5021040;28;19917;-72
2023/10/26 11:54:12;;;;;;;;;;;;;;;12.79;100.00;99564.81;5032489;28;19971;-72
2023/10/26 11:56:37;;;;;;;;;;;;;;;12.42;100.00;99563.34;5018835;28;19924;-72
2023/10/26 11:59:03;;;;;;;;;;;;;;;12.14;100.00;99569.81;5016846;28;19929;-71
2023/10/26 12:01:28;;;;;;;;;;;;;;;12.15;100.00;99576.00;5021782;28;19928;-72
2023/10/26 12:03:53;;;;;;;;;;;;;;;12.05;100.00;99575.31;5011760;28;19964;-72
2023/10/26 12:06:18;;;;;;;;;;;;;;;11.89;100.00;99566.09;5014132;28;20287;-71
2023/10/26 12:08:44;;;;;;;;;;;;;;;11.83;100.00;99561.34;5027997;28;20360;-72
2023/10/26 12:11:09;;;;;;;;;;;;;;;11.99;100.00;99556.09;5018312;28;19965;-71
2023/10/26 12:13:35;;;;;;;;;;;;;;;11.99;100.00;99550.72;4992755;28;19995;-71
2023/10/26 12:16:00;;;;;;;;;;;;;;;12.04;100.00;99552.94;5011232;28;20474;-71
2023/10/26 12:18:27;;;;;;;;;;;;;;;12.06;100.00;99542.84;5017606;28;19921;-72
2023/10/26 12:20:52;;;;;;;;;;;;;;;12.08;100.00;99540.00;5016048;28;19933;-71
2023/10/26 12:23:17;;;;;;;;;;;;;;;11.95;100.00;99543.09;5003609;28;19930;-71
2023/10/26 12:25:42;;;;;;;;;;;;;;;12.03;100.00;99542.34;5024276;28;19956;-72
2023/10/26 12:28:07;;;;;;;;;;;;;;;11.92;100.00;99538.06;5013560;28;19959;-71
2023/10/26 12:30:33;;;;;;;;;;;;;;;11.76;100.00;99544.19;5009796;28;19928;-71
2023/10/26 12:32:58;;;;;;;;;;;;;;;11.72;100.00;99548.19;5010650;28;19988;-71
2023/10/26 12:35:23;;;;;;;;;;;;;;;11.75;100.00;99537.94;5013594;28;20369;-72
2023/10/26 12:37:48;;;;;;;;;;;;;;;11.83;100.00;99531.75;5011482;28;19925;-73
2023/10/26 12:40:14;;;;;;;;;;;;;;;11.90;100.00;99521.22;5013649;28;19921;-72